createdAt,value
2022-12-14T00:01:40.979Z,91.70
2022-12-14T00:04:07.879Z,91.70
2022-12-14T00:06:35.001Z,91.70
2022-12-14T00:09:04.258Z,91.60
2022-12-14T00:11:33.428Z,91.60
2022-12-14T00:14:03.380Z,91.60
2022-12-14T00:16:33.616Z,91.60
2022-12-14T00:19:01.939Z,91.60
2022-12-14T00:21:29.509Z,91.60
2022-12-14T00:24:00.337Z,91.60
2022-12-14T00:26:31.184Z,91.60
2022-12-14T00:29:00.668Z,91.60
2022-12-14T00:31:28.203Z,91.60
2022-12-14T00:33:55.416Z,91.60
2022-12-14T00:36:22.599Z,91.60
2022-12-14T00:38:49.475Z,91.60
2022-12-14T00:41:16.360Z,91.60
2022-12-14T00:43:43.417Z,91.50
2022-12-14T00:46:10.397Z,91.50
2022-12-14T00:48:37.459Z,91.60
2022-12-14T00:51:04.397Z,91.60
2022-12-14T00:53:31.772Z,91.60
2022-12-14T00:56:06.591Z,91.60
2022-12-14T00:58:34.052Z,91.50
2022-12-14T01:01:14.763Z,91.60
2022-12-14T01:03:41.963Z,91.60
2022-12-14T01:06:22.259Z,91.50
2022-12-14T01:08:49.652Z,91.60
2022-12-14T01:11:16.563Z,91.50
2022-12-14T01:13:43.465Z,91.50
2022-12-14T01:16:14.793Z,91.50
2022-12-14T01:18:43.616Z,91.60
2022-12-14T01:21:12.095Z,91.50
2022-12-14T01:23:39.636Z,91.60
2022-12-14T01:26:06.778Z,91.60
2022-12-14T01:28:34.995Z,91.60
2022-12-14T01:31:21.316Z,91.60
2022-12-14T01:33:49.084Z,91.60
2022-12-14T01:36:22.742Z,91.90
2022-12-14T01:38:55.219Z,91.50
2022-12-14T01:41:27.768Z,91.50
2022-12-14T01:44:24.275Z,91.50
2022-12-14T01:47:11.976Z,91.40
2022-12-14T01:49:43.257Z,91.40
2022-12-14T01:52:21.493Z,91.30
2022-12-14T01:54:59.620Z,91.30
2022-12-14T01:57:34.190Z,91.30
2022-12-14T02:00:06.904Z,91.20
2022-12-14T02:02:37.508Z,91.20
2022-12-14T02:05:08.174Z,91.20
2022-12-14T02:07:35.096Z,91.20
2022-12-14T02:10:05.874Z,91.20
2022-12-14T02:12:41.261Z,91.50
2022-12-14T02:15:08.800Z,91.10
2022-12-14T02:17:35.718Z,91.20
2022-12-14T02:20:04.356Z,91.10
2022-12-14T02:23:02.224Z,91.10
2022-12-14T02:26:15.752Z,91.10
2022-12-14T02:29:15.280Z,91.10
2022-12-14T02:32:26.387Z,91.10
2022-12-14T02:35:19.746Z,91.10
2022-12-14T02:38:28.172Z,91.20
2022-12-14T02:41:17.874Z,91.20
2022-12-14T02:44:18.000Z,91.20
2022-12-14T02:46:58.469Z,91.10
2022-12-14T02:49:51.659Z,91.10
2022-12-14T02:52:53.526Z,91.10
2022-12-14T02:55:43.102Z,91.10
2022-12-14T02:58:22.190Z,91.10
2022-12-14T03:00:49.857Z,91.10
2022-12-14T03:03:17.326Z,91.10
2022-12-14T03:05:58.846Z,91.10
2022-12-14T03:08:28.285Z,91.20
2022-12-14T03:11:05.408Z,91.10
2022-12-14T03:13:49.150Z,91.20
2022-12-14T03:16:28.616Z,91.20
2022-12-14T03:19:00.692Z,91.20
2022-12-14T03:21:36.479Z,91.10
2022-12-14T03:24:10.266Z,91.20
2022-12-14T03:26:56.518Z,91.10
2022-12-14T03:29:32.811Z,91.10
2022-12-14T03:32:06.543Z,91.10
2022-12-14T03:34:43.380Z,91.00
2022-12-14T03:37:16.534Z,91.00
2022-12-14T03:39:45.483Z,91.00
2022-12-14T03:42:23.697Z,91.00
2022-12-14T03:45:11.916Z,91.00
2022-12-14T03:48:15.512Z,91.10
2022-12-14T03:51:19.626Z,91.00
2022-12-14T03:54:15.852Z,91.10
2022-12-14T03:57:07.888Z,91.10
2022-12-14T04:00:07.463Z,91.20
2022-12-14T04:02:51.564Z,91.20
2022-12-14T04:05:48.764Z,91.20
2022-12-14T04:08:26.974Z,91.30
2022-12-14T04:11:15.794Z,91.30
2022-12-14T04:14:08.615Z,91.30
2022-12-14T04:16:58.688Z,91.30
2022-12-14T04:19:37.775Z,91.30
2022-12-14T04:22:14.122Z,91.40
2022-12-14T04:25:12.989Z,91.40
2022-12-14T04:27:50.299Z,91.40
2022-12-14T04:30:17.639Z,91.40
2022-12-14T04:32:50.382Z,91.50
2022-12-14T04:35:35.153Z,91.50
2022-12-14T04:38:13.838Z,91.50
2022-12-14T04:40:49.425Z,91.50
2022-12-14T04:43:21.299Z,91.50
2022-12-14T04:46:00.199Z,91.50
2022-12-14T04:49:08.784Z,91.50
2022-12-14T04:51:59.386Z,91.60
2022-12-14T04:55:05.921Z,91.60
2022-12-14T04:57:56.619Z,91.50
2022-12-14T05:00:24.275Z,91.60
2022-12-14T05:03:26.360Z,91.60
2022-12-14T05:06:08.034Z,91.60
2022-12-14T05:09:12.184Z,91.70
2022-12-14T05:12:11.083Z,91.70
2022-12-14T05:14:46.824Z,91.70
2022-12-14T05:17:14.993Z,91.70
2022-12-14T05:19:49.918Z,91.80
2022-12-14T05:22:18.052Z,91.80
2022-12-14T05:24:44.922Z,91.80
2022-12-14T05:27:11.826Z,91.80
2022-12-14T05:29:38.709Z,91.80
2022-12-14T05:32:05.755Z,91.90
2022-12-14T05:34:32.670Z,91.90
2022-12-14T05:36:59.567Z,91.90
2022-12-14T05:39:26.474Z,91.90
2022-12-14T05:41:53.460Z,91.80
2022-12-14T05:44:20.934Z,91.90
2022-12-14T05:46:47.916Z,91.90
2022-12-14T05:49:14.813Z,91.90
2022-12-14T05:51:41.713Z,92.00
2022-12-14T05:54:08.772Z,92.10
2022-12-14T05:56:35.667Z,92.00
2022-12-14T05:59:02.670Z,91.90
2022-12-14T06:01:29.643Z,91.90
2022-12-14T06:03:56.653Z,91.90
2022-12-14T06:06:23.657Z,92.00
2022-12-14T06:08:50.570Z,92.00
2022-12-14T06:11:20.773Z,91.90
2022-12-14T06:13:48.379Z,91.90
2022-12-14T06:16:22.957Z,91.90
2022-12-14T06:18:53.394Z,91.90
2022-12-14T06:21:25.515Z,91.90
2022-12-14T06:23:52.550Z,91.90
2022-12-14T06:26:19.598Z,91.90
2022-12-14T06:28:46.756Z,92.00
2022-12-14T06:31:23.470Z,91.90
2022-12-14T06:33:51.421Z,92.00
2022-12-14T06:36:27.391Z,92.00
2022-12-14T06:38:56.020Z,92.10
2022-12-14T06:41:24.406Z,92.10
2022-12-14T06:43:51.987Z,92.10
2022-12-14T06:46:22.120Z,92.00
2022-12-14T06:48:52.063Z,91.90
2022-12-14T06:51:20.002Z,92.00
2022-12-14T06:53:50.251Z,92.00
2022-12-14T06:56:18.923Z,91.90
2022-12-14T06:58:46.328Z,92.00
2022-12-14T07:01:21.967Z,92.00
2022-12-14T07:03:55.046Z,91.90
2022-12-14T07:06:23.234Z,91.90
2022-12-14T07:08:54.230Z,91.90
2022-12-14T07:11:22.051Z,91.90
2022-12-14T07:13:49.098Z,91.90
2022-12-14T07:16:20.433Z,91.90
2022-12-14T07:18:48.151Z,92.00
2022-12-14T07:21:17.364Z,92.00
2022-12-14T07:23:46.228Z,91.90
2022-12-14T07:26:18.103Z,91.90
2022-12-14T07:28:46.289Z,91.90
2022-12-14T07:31:24.739Z,91.90
2022-12-14T07:33:57.955Z,92.00
2022-12-14T07:36:27.620Z,92.00
2022-12-14T07:38:55.780Z,92.00
2022-12-14T07:41:30.611Z,91.90
2022-12-14T07:44:00.223Z,92.00
2022-12-14T07:46:30.242Z,92.10
2022-12-14T07:48:58.884Z,92.10
2022-12-14T07:51:32.433Z,92.00
2022-12-14T07:54:01.274Z,92.10
2022-12-14T07:56:32.264Z,92.00
2022-12-14T07:59:01.022Z,92.10
2022-12-14T08:01:33.943Z,92.00
2022-12-14T08:04:30.397Z,92.00
2022-12-14T08:06:58.713Z,92.10
2022-12-14T08:09:25.597Z,92.10
2022-12-14T08:11:52.484Z,92.10
2022-12-14T08:14:19.765Z,92.00
2022-12-14T08:16:48.648Z,92.10
2022-12-14T08:19:16.658Z,92.20
2022-12-14T08:21:43.588Z,92.10
2022-12-14T08:24:13.208Z,92.00
2022-12-14T08:26:40.107Z,92.10
2022-12-14T08:29:07.289Z,92.00
2022-12-14T08:31:34.408Z,91.90
2022-12-14T08:34:02.499Z,91.90
2022-12-14T08:36:34.344Z,91.70
2022-12-14T08:39:10.235Z,91.70
2022-12-14T08:41:37.145Z,91.80
2022-12-14T08:44:05.514Z,91.70
2022-12-14T08:46:35.194Z,91.70
2022-12-14T08:49:02.249Z,91.60
2022-12-14T08:51:29.604Z,91.60
2022-12-14T08:53:57.514Z,91.60
2022-12-14T08:56:28.129Z,91.50
2022-12-14T08:58:56.475Z,91.50
2022-12-14T09:01:32.708Z,91.40
2022-12-14T09:04:07.665Z,91.30
2022-12-14T09:06:38.294Z,91.30
2022-12-14T09:09:13.290Z,91.10
2022-12-14T09:11:42.352Z,91.20
2022-12-14T09:14:09.236Z,91.20
2022-12-14T09:16:37.576Z,91.00
2022-12-14T09:19:04.638Z,91.00
2022-12-14T09:21:31.726Z,90.80
2022-12-14T09:23:59.936Z,90.80
2022-12-14T09:26:27.601Z,90.80
2022-12-14T09:28:56.623Z,90.80
2022-12-14T09:31:26.840Z,90.60
2022-12-14T09:33:54.935Z,91.10
2022-12-14T09:36:27.467Z,90.70
2022-12-14T09:38:55.383Z,90.60
2022-12-14T09:41:34.401Z,90.30
2022-12-14T09:44:38.545Z,90.20
2022-12-14T09:47:20.048Z,90.50
2022-12-14T09:49:49.901Z,90.20
2022-12-14T09:52:45.471Z,90.00
2022-12-14T09:55:31.265Z,89.70
2022-12-14T09:58:16.500Z,89.60
2022-12-14T10:01:15.163Z,90.00
2022-12-14T10:04:16.328Z,89.80
2022-12-14T10:07:19.984Z,89.50
2022-12-14T10:10:16.137Z,89.80
2022-12-14T10:13:04.316Z,89.80
2022-12-14T10:15:54.949Z,88.90
2022-12-14T10:19:02.155Z,88.80
2022-12-14T10:21:52.735Z,88.70
2022-12-14T10:24:30.443Z,88.60
2022-12-14T10:26:57.579Z,88.50
2022-12-14T10:29:42.613Z,88.80
2022-12-14T10:32:38.601Z,88.30
2022-12-14T10:35:14.961Z,88.50
2022-12-14T10:37:47.803Z,88.30
2022-12-14T10:40:49.460Z,88.60
2022-12-14T10:43:45.943Z,88.70
2022-12-14T10:46:42.454Z,88.70
2022-12-14T10:49:40.005Z,89.10
2022-12-14T10:52:34.046Z,89.10
2022-12-14T10:55:07.068Z,89.20
2022-12-14T10:57:33.959Z,88.70
2022-12-14T11:00:09.195Z,88.80
2022-12-14T11:02:42.989Z,88.80
2022-12-14T11:05:25.022Z,88.40
2022-12-14T11:07:51.906Z,88.40
2022-12-14T11:10:24.730Z,88.30
2022-12-14T11:13:18.021Z,88.70
2022-12-14T11:15:48.522Z,88.30
2022-12-14T11:18:15.412Z,88.30
2022-12-14T11:21:01.881Z,88.50
2022-12-14T11:23:35.882Z,88.30
2022-12-14T11:26:07.072Z,88.20
2022-12-14T11:28:40.135Z,88.30
2022-12-14T11:31:12.422Z,88.50
2022-12-14T11:33:50.591Z,88.20
2022-12-14T11:36:36.080Z,88.00
2022-12-14T11:39:15.096Z,87.90
2022-12-14T11:41:48.951Z,87.80
2022-12-14T11:44:15.748Z,88.10
2022-12-14T11:47:02.106Z,88.00
2022-12-14T11:49:45.111Z,88.20
2022-12-14T11:52:22.215Z,88.20
2022-12-14T11:54:55.215Z,88.00
2022-12-14T11:57:28.492Z,88.10
2022-12-14T12:00:02.126Z,87.70
2022-12-14T12:02:40.018Z,87.80
2022-12-14T12:05:20.030Z,87.90
2022-12-14T12:07:49.843Z,87.40
2022-12-14T12:10:22.993Z,87.10
2022-12-14T12:13:00.362Z,87.20
2022-12-14T12:15:37.402Z,87.60
2022-12-14T12:18:46.292Z,87.70
2022-12-14T12:21:30.191Z,87.30
2022-12-14T12:24:21.816Z,87.30
2022-12-14T12:26:58.660Z,87.00
2022-12-14T12:29:48.458Z,86.50
2022-12-14T12:32:28.585Z,86.40
2022-12-14T12:35:13.407Z,86.80
2022-12-14T12:37:57.613Z,86.70
2022-12-14T12:40:54.940Z,86.40
2022-12-14T12:43:39.092Z,86.60
2022-12-14T12:46:16.704Z,87.10
2022-12-14T12:48:53.445Z,87.40
2022-12-14T12:51:28.799Z,87.10
2022-12-14T12:54:15.830Z,86.70
2022-12-14T12:56:48.457Z,86.30
2022-12-14T12:59:35.540Z,86.30
2022-12-14T13:02:30.023Z,86.60
2022-12-14T13:05:06.998Z,86.30
2022-12-14T13:07:53.980Z,86.40
2022-12-14T13:10:30.860Z,86.40
2022-12-14T13:13:07.144Z,86.10
2022-12-14T13:15:52.608Z,85.80
2022-12-14T13:18:57.377Z,86.40
2022-12-14T13:21:30.826Z,86.40
2022-12-14T13:23:58.128Z,86.20
2022-12-14T13:27:29.976Z,86.20
2022-12-14T13:30:45.036Z,86.20
2022-12-14T13:33:39.687Z,86.30
2022-12-14T13:36:49.810Z,86.70
2022-12-14T13:39:57.234Z,86.80
2022-12-14T13:43:13.091Z,87.30
2022-12-14T13:45:43.925Z,87.40
2022-12-14T13:48:28.105Z,87.50
2022-12-14T13:51:02.028Z,87.80
2022-12-14T13:53:41.330Z,87.90
2022-12-14T13:56:09.085Z,88.30
2022-12-14T13:58:44.619Z,88.50
2022-12-14T14:01:48.399Z,88.60
2022-12-14T14:04:29.687Z,88.80
2022-12-14T14:07:26.693Z,89.00
2022-12-14T14:09:59.524Z,88.90
2022-12-14T14:12:37.043Z,89.10
2022-12-14T14:15:33.014Z,89.30
2022-12-14T14:18:14.943Z,89.40
2022-12-14T14:20:58.625Z,89.40
2022-12-14T14:23:31.853Z,89.40
2022-12-14T14:26:22.661Z,89.40
2022-12-14T14:29:23.470Z,89.60
2022-12-14T14:31:56.390Z,89.80
2022-12-14T14:34:43.785Z,89.80
2022-12-14T14:37:19.782Z,90.00
2022-12-14T14:40:16.733Z,90.00
2022-12-14T14:43:18.058Z,90.00
2022-12-14T14:45:52.710Z,90.10
2022-12-14T14:48:38.865Z,90.00
2022-12-14T14:51:34.531Z,90.10
2022-12-14T14:54:37.601Z,90.20
2022-12-14T14:57:03.223Z,90.20
2022-12-14T14:59:51.128Z,90.30
2022-12-14T15:02:40.423Z,90.30
2022-12-14T15:08:04.305Z,90.30
2022-12-14T15:10:44.606Z,90.30
2022-12-14T15:13:26.198Z,90.30
2022-12-14T15:15:56.303Z,90.30
2022-12-14T15:18:26.711Z,90.30
2022-12-14T15:21:06.800Z,90.20
2022-12-14T15:23:37.682Z,90.20
2022-12-14T15:26:16.901Z,90.30
2022-12-14T15:28:55.059Z,90.40
2022-12-14T15:31:41.921Z,90.50
2022-12-14T15:34:18.173Z,90.60
2022-12-14T15:36:45.588Z,90.60
2022-12-14T15:39:43.502Z,90.50
2022-12-14T15:42:15.442Z,90.60
2022-12-14T15:44:54.894Z,90.50
2022-12-14T15:47:30.481Z,90.70
2022-12-14T15:50:22.495Z,90.70
2022-12-14T15:52:51.201Z,90.60
2022-12-14T15:55:35.609Z,90.50
2022-12-14T15:58:20.731Z,90.40
2022-12-14T16:00:51.716Z,90.50
2022-12-14T16:03:32.705Z,90.40
2022-12-14T16:06:00.967Z,90.50
2022-12-14T16:08:30.904Z,90.30
2022-12-14T16:11:01.548Z,90.40
2022-12-14T16:13:35.044Z,90.30
2022-12-14T16:16:11.686Z,90.30
2022-12-14T16:18:50.738Z,90.30
2022-12-14T16:21:34.388Z,90.30
2022-12-14T16:24:22.370Z,90.40
2022-12-14T16:27:00.218Z,90.40
2022-12-14T16:29:32.775Z,90.40
2022-12-14T16:32:12.939Z,90.50
2022-12-14T16:34:47.542Z,90.50
2022-12-14T16:37:33.931Z,90.50
2022-12-14T16:40:01.246Z,90.50
2022-12-14T16:42:31.577Z,90.60
2022-12-14T16:44:58.453Z,90.60
2022-12-14T16:47:34.393Z,90.60
2022-12-14T16:50:01.268Z,90.60
2022-12-14T16:52:36.735Z,90.50
2022-12-14T16:55:19.355Z,90.40
2022-12-14T16:57:49.163Z,90.40
2022-12-14T17:00:27.721Z,90.40
2022-12-14T17:03:20.717Z,90.40
2022-12-14T17:05:54.123Z,90.40
2022-12-14T17:08:21.082Z,90.40
2022-12-14T17:10:48.238Z,90.40
2022-12-14T17:13:15.161Z,90.50
2022-12-14T17:16:03.838Z,90.60
2022-12-14T17:18:35.397Z,90.70
2022-12-14T17:21:02.559Z,90.80
2022-12-14T17:23:29.890Z,90.80
2022-12-14T17:25:57.487Z,90.70
2022-12-14T17:28:31.058Z,90.60
2022-12-14T17:31:01.580Z,90.50
2022-12-14T17:33:30.497Z,90.50
2022-12-14T17:35:57.768Z,90.50
2022-12-14T17:38:25.807Z,90.50
2022-12-14T17:40:53.907Z,90.40
2022-12-14T17:43:26.727Z,90.50
2022-12-14T17:45:54.554Z,90.40
2022-12-14T17:48:21.512Z,90.50
2022-12-14T17:50:50.004Z,90.50
2022-12-14T17:53:25.160Z,90.50
2022-12-14T17:55:52.078Z,90.50
2022-12-14T17:58:19.028Z,90.60
2022-12-14T18:01:00.910Z,90.60
2022-12-14T18:03:36.505Z,90.70
2022-12-14T18:06:04.653Z,91.10
2022-12-14T18:08:31.571Z,90.90
2022-12-14T18:11:02.600Z,90.80
2022-12-14T18:13:31.695Z,90.90
2022-12-14T18:16:00.517Z,90.90
2022-12-14T18:18:29.427Z,90.90
2022-12-14T18:21:02.775Z,91.00
2022-12-14T18:23:31.700Z,91.10
2022-12-14T18:26:00.031Z,91.20
2022-12-14T18:28:27.344Z,91.30
2022-12-14T18:31:03.747Z,91.30
2022-12-14T18:33:33.246Z,91.30
2022-12-14T18:36:00.862Z,91.20
2022-12-14T18:38:27.840Z,91.20
2022-12-14T18:40:58.473Z,91.20
2022-12-14T18:43:28.091Z,91.00
2022-12-14T18:45:56.345Z,91.00
2022-12-14T18:48:25.098Z,90.90
2022-12-14T18:50:54.077Z,90.90
2022-12-14T18:53:23.486Z,90.80
2022-12-14T18:55:50.521Z,90.80
2022-12-14T18:58:27.525Z,90.80
2022-12-14T19:00:57.839Z,90.80
2022-12-14T19:03:26.345Z,90.70
2022-12-14T19:06:34.392Z,90.70
2022-12-14T19:08:51.224Z,90.80
2022-12-14T19:11:34.315Z,90.80
2022-12-14T19:14:02.074Z,90.80
2022-12-14T19:16:29.516Z,90.80
2022-12-14T19:18:56.853Z,90.80
2022-12-14T19:21:25.727Z,90.80
2022-12-14T19:23:52.675Z,90.90
2022-12-14T19:26:19.557Z,91.00
2022-12-14T19:28:46.443Z,91.00
2022-12-14T19:31:13.425Z,91.10
2022-12-14T19:33:40.372Z,91.10
2022-12-14T19:36:08.623Z,91.00
2022-12-14T19:38:36.897Z,90.90
2022-12-14T19:41:11.101Z,90.80
2022-12-14T19:43:39.372Z,90.70
2022-12-14T19:46:08.145Z,90.50
2022-12-14T19:48:35.390Z,90.50
2022-12-14T19:51:07.880Z,90.50
2022-12-14T19:53:35.751Z,90.60
2022-12-14T19:56:03.741Z,90.80
2022-12-14T19:58:30.686Z,90.80
2022-12-14T20:00:57.947Z,90.90
2022-12-14T20:03:25.330Z,90.90
2022-12-14T20:05:54.888Z,90.90
2022-12-14T20:08:22.895Z,90.90
2022-12-14T20:10:50.337Z,90.90
2022-12-14T20:13:17.251Z,90.90
2022-12-14T20:15:53.697Z,91.00
2022-12-14T20:18:23.080Z,91.10
2022-12-14T20:20:52.130Z,91.10
2022-12-14T20:23:21.544Z,91.00
2022-12-14T20:25:49.482Z,90.90
2022-12-14T20:28:16.426Z,90.80
2022-12-14T20:30:47.741Z,90.70
2022-12-14T20:33:14.697Z,90.70
2022-12-14T20:35:41.621Z,90.70
2022-12-14T20:38:08.485Z,90.70
2022-12-14T20:40:38.859Z,90.80
2022-12-14T20:43:07.104Z,90.80
2022-12-14T20:45:42.338Z,90.90
2022-12-14T20:48:09.335Z,91.00
2022-12-14T20:50:42.215Z,90.90
2022-12-14T20:53:09.274Z,91.00
2022-12-14T20:55:36.422Z,90.90
2022-12-14T20:58:03.367Z,91.00
2022-12-14T21:00:30.383Z,91.00
2022-12-14T21:02:57.504Z,91.00
2022-12-14T21:05:24.822Z,91.00
2022-12-14T21:07:52.018Z,91.00
2022-12-14T21:10:19.026Z,90.90
2022-12-14T21:12:48.736Z,90.90
2022-12-14T21:15:15.697Z,90.90
2022-12-14T21:17:42.584Z,90.80
2022-12-14T21:20:11.413Z,90.70
2022-12-14T21:22:38.601Z,90.70
2022-12-14T21:25:07.167Z,90.70
2022-12-14T21:27:40.706Z,90.70
2022-12-14T21:30:11.210Z,90.70
2022-12-14T21:32:39.019Z,90.70
2022-12-14T21:35:06.688Z,90.70
2022-12-14T21:37:33.602Z,90.70
2022-12-14T21:40:03.267Z,90.70
2022-12-14T21:42:30.128Z,90.80
2022-12-14T21:44:57.646Z,90.70
2022-12-14T21:47:29.868Z,90.70
2022-12-14T21:49:57.279Z,90.60
2022-12-14T21:52:26.728Z,90.50
2022-12-14T21:54:53.616Z,90.50
2022-12-14T21:57:42.605Z,90.50
2022-12-14T22:00:11.104Z,90.40
2022-12-14T22:02:41.849Z,90.40
2022-12-14T22:05:10.236Z,90.40
2022-12-14T22:07:37.127Z,90.30
2022-12-14T22:10:04.734Z,90.30
2022-12-14T22:12:31.827Z,90.40
2022-12-14T22:14:58.702Z,90.50
2022-12-14T22:17:25.586Z,90.40
2022-12-14T22:19:54.289Z,90.40
2022-12-14T22:22:21.245Z,90.30
2022-12-14T22:24:49.700Z,90.20
2022-12-14T22:27:16.863Z,90.20
2022-12-14T22:29:43.731Z,90.20
2022-12-14T22:32:14.682Z,90.20
2022-12-14T22:34:41.961Z,90.20
2022-12-14T22:37:09.029Z,90.30
2022-12-14T22:39:36.099Z,90.30
2022-12-14T22:42:03.010Z,90.40
2022-12-14T22:44:29.975Z,90.30
2022-12-14T22:46:57.713Z,90.30
2022-12-14T22:49:24.662Z,90.30
2022-12-14T22:51:51.638Z,90.20
2022-12-14T22:54:24.688Z,90.20
2022-12-14T22:57:04.730Z,90.10
2022-12-14T22:59:58.548Z,90.00
2022-12-14T23:02:25.975Z,90.00
2022-12-14T23:04:53.105Z,90.00
2022-12-14T23:07:20.023Z,90.00
2022-12-14T23:10:05.287Z,90.00
2022-12-14T23:12:50.820Z,90.00
2022-12-14T23:15:36.261Z,89.90
2022-12-14T23:18:26.550Z,89.80
2022-12-14T23:21:13.054Z,89.90
2022-12-14T23:24:01.419Z,90.00
2022-12-14T23:26:47.501Z,90.00
2022-12-14T23:29:33.446Z,90.00
2022-12-14T23:32:18.726Z,90.00
2022-12-14T23:35:04.312Z,90.00
2022-12-14T23:37:49.781Z,89.90
2022-12-14T23:40:35.504Z,89.90
2022-12-14T23:43:33.796Z,89.80
2022-12-14T23:46:20.818Z,89.80
2022-12-14T23:49:10.534Z,89.70
2022-12-14T23:52:00.980Z,89.80
2022-12-14T23:54:46.138Z,90.00
2022-12-14T23:57:31.772Z,89.90
